sensor_id;sensor_type;location;lat;lon;timestamp;temperature;humidity
11704;DHT22;5908;51.354;7.458;2023-06-10T00:00:07;19.40;98.60
11704;DHT22;5908;51.354;7.458;2023-06-10T00:02:38;19.30;98.90
11704;DHT22;5908;51.354;7.458;2023-06-10T00:05:06;19.30;99.20
11704;DHT22;5908;51.354;7.458;2023-06-10T00:07:35;19.20;99.30
11704;DHT22;5908;51.354;7.458;2023-06-10T00:10:03;19.20;99.50
11704;DHT22;5908;51.354;7.458;2023-06-10T00:12:31;19.20;99.90
11704;DHT22;5908;51.354;7.458;2023-06-10T00:15:02;19.10;99.90
11704;DHT22;5908;51.354;7.458;2023-06-10T00:17:30;19.10;99.90
11704;DHT22;5908;51.354;7.458;2023-06-10T00:19:58;19.00;99.90
11704;DHT22;5908;51.354;7.458;2023-06-10T00:22:26;19.00;99.90
11704;DHT22;5908;51.354;7.458;2023-06-10T00:24:55;18.90;99.90
11704;DHT22;5908;51.354;7.458;2023-06-10T00:27:22;18.90;99.90
11704;DHT22;5908;51.354;7.458;2023-06-10T00:29:49;18.90;99.90
11704;DHT22;5908;51.354;7.458;2023-06-10T00:32:15;18.80;99.90
11704;DHT22;5908;51.354;7.458;2023-06-10T00:34:42;18.80;99.90
11704;DHT22;5908;51.354;7.458;2023-06-10T00:37:09;18.80;99.90
11704;DHT22;5908;51.354;7.458;2023-06-10T00:39:37;18.80;99.90
11704;DHT22;5908;51.354;7.458;2023-06-10T00:42:04;18.70;99.90
11704;DHT22;5908;51.354;7.458;2023-06-10T00:44:32;18.70;99.90
11704;DHT22;5908;51.354;7.458;2023-06-10T00:46:59;18.60;99.90
11704;DHT22;5908;51.354;7.458;2023-06-10T00:49:26;18.60;99.90
11704;DHT22;5908;51.354;7.458;2023-06-10T00:51:53;18.50;99.90
11704;DHT22;5908;51.354;7.458;2023-06-10T00:54:20;18.50;99.90
11704;DHT22;5908;51.354;7.458;2023-06-10T00:56:49;18.40;99.90
11704;DHT22;5908;51.354;7.458;2023-06-10T00:59:16;18.40;99.90
11704;DHT22;5908;51.354;7.458;2023-06-10T01:01:43;18.40;99.90
11704;DHT22;5908;51.354;7.458;2023-06-10T01:04:12;18.30;99.90
11704;DHT22;5908;51.354;7.458;2023-06-10T01:06:48;18.20;99.90
11704;DHT22;5908;51.354;7.458;2023-06-10T01:09:23;18.20;99.90
11704;DHT22;5908;51.354;7.458;2023-06-10T01:11:59;18.20;99.90
11704;DHT22;5908;51.354;7.458;2023-06-10T01:14:29;18.20;99.90
11704;DHT22;5908;51.354;7.458;2023-06-10T01:16:57;18.10;99.90
11704;DHT22;5908;51.354;7.458;2023-06-10T01:19:25;18.10;99.90
11704;DHT22;5908;51.354;7.458;2023-06-10T01:21:55;18.10;99.90
11704;DHT22;5908;51.354;7.458;2023-06-10T01:24:24;18.10;99.90
11704;DHT22;5908;51.354;7.458;2023-06-10T01:26:51;18.00;99.90
11704;DHT22;5908;51.354;7.458;2023-06-10T01:29:21;18.00;99.90
11704;DHT22;5908;51.354;7.458;2023-06-10T01:31:57;17.90;99.90
11704;DHT22;5908;51.354;7.458;2023-06-10T01:34:28;17.90;99.90
11704;DHT22;5908;51.354;7.458;2023-06-10T01:36:59;17.80;99.90
11704;DHT22;5908;51.354;7.458;2023-06-10T01:39:26;17.80;99.90
11704;DHT22;5908;51.354;7.458;2023-06-10T01:41:54;17.70;99.90
11704;DHT22;5908;51.354;7.458;2023-06-10T01:44:22;17.70;99.90
11704;DHT22;5908;51.354;7.458;2023-06-10T01:46:49;17.70;99.90
11704;DHT22;5908;51.354;7.458;2023-06-10T01:49:16;17.60;99.90
11704;DHT22;5908;51.354;7.458;2023-06-10T01:51:43;17.60;99.90
11704;DHT22;5908;51.354;7.458;2023-06-10T01:54:11;17.50;99.90
11704;DHT22;5908;51.354;7.458;2023-06-10T01:56:38;17.50;99.90
11704;DHT22;5908;51.354;7.458;2023-06-10T01:59:04;17.40;99.90
11704;DHT22;5908;51.354;7.458;2023-06-10T02:01:32;17.40;99.90
11704;DHT22;5908;51.354;7.458;2023-06-10T02:03:59;17.40;99.90
11704;DHT22;5908;51.354;7.458;2023-06-10T02:06:25;17.40;99.90
11704;DHT22;5908;51.354;7.458;2023-06-10T02:08:52;17.30;99.90
11704;DHT22;5908;51.354;7.458;2023-06-10T02:11:20;17.30;99.90
11704;DHT22;5908;51.354;7.458;2023-06-10T02:13:48;17.30;99.90
11704;DHT22;5908;51.354;7.458;2023-06-10T02:16:15;17.20;99.90
11704;DHT22;5908;51.354;7.458;2023-06-10T02:18:42;17.20;99.90
11704;DHT22;5908;51.354;7.458;2023-06-10T02:21:09;17.10;99.90
11704;DHT22;5908;51.354;7.458;2023-06-10T02:23:36;17.00;99.90
11704;DHT22;5908;51.354;7.458;2023-06-10T02:26:03;17.10;99.90
11704;DHT22;5908;51.354;7.458;2023-06-10T02:28:31;17.10;99.90
11704;DHT22;5908;51.354;7.458;2023-06-10T02:30:58;17.10;99.90
11704;DHT22;5908;51.354;7.458;2023-06-10T02:33:26;17.00;99.90
11704;DHT22;5908;51.354;7.458;2023-06-10T02:35:53;17.00;99.90
11704;DHT22;5908;51.354;7.458;2023-06-10T02:38:19;17.00;99.90
11704;DHT22;5908;51.354;7.458;2023-06-10T02:40:46;16.90;99.90
11704;DHT22;5908;51.354;7.458;2023-06-10T02:43:13;16.90;99.90
11704;DHT22;5908;51.354;7.458;2023-06-10T02:45:41;16.90;99.90
11704;DHT22;5908;51.354;7.458;2023-06-10T02:48:08;16.90;99.90
11704;DHT22;5908;51.354;7.458;2023-06-10T02:50:35;16.90;99.90
11704;DHT22;5908;51.354;7.458;2023-06-10T02:53:04;16.90;99.90
11704;DHT22;5908;51.354;7.458;2023-06-10T02:55:31;16.80;99.90
11704;DHT22;5908;51.354;7.458;2023-06-10T02:57:57;16.90;99.90
11704;DHT22;5908;51.354;7.458;2023-06-10T03:00:24;16.80;99.90
11704;DHT22;5908;51.354;7.458;2023-06-10T03:02:52;16.70;99.90
11704;DHT22;5908;51.354;7.458;2023-06-10T03:05:22;16.70;99.90
11704;DHT22;5908;51.354;7.458;2023-06-10T03:07:49;16.70;99.90
11704;DHT22;5908;51.354;7.458;2023-06-10T03:10:16;16.70;99.90
11704;DHT22;5908;51.354;7.458;2023-06-10T03:12:43;16.70;99.90
11704;DHT22;5908;51.354;7.458;2023-06-10T03:15:10;16.70;99.90
11704;DHT22;5908;51.354;7.458;2023-06-10T03:17:36;16.70;99.90
11704;DHT22;5908;51.354;7.458;2023-06-10T03:20:06;16.70;99.90
11704;DHT22;5908;51.354;7.458;2023-06-10T03:22:35;16.70;99.90
11704;DHT22;5908;51.354;7.458;2023-06-10T03:25:03;16.70;99.90
11704;DHT22;5908;51.354;7.458;2023-06-10T03:27:30;16.70;99.90
11704;DHT22;5908;51.354;7.458;2023-06-10T03:29:58;16.70;99.90
11704;DHT22;5908;51.354;7.458;2023-06-10T03:32:25;16.80;99.90
11704;DHT22;5908;51.354;7.458;2023-06-10T03:34:52;16.80;99.90
11704;DHT22;5908;51.354;7.458;2023-06-10T03:37:24;16.80;99.90
11704;DHT22;5908;51.354;7.458;2023-06-10T03:39:51;16.80;99.90
11704;DHT22;5908;51.354;7.458;2023-06-10T03:42:18;16.90;99.90
11704;DHT22;5908;51.354;7.458;2023-06-10T03:44:45;16.90;99.90
11704;DHT22;5908;51.354;7.458;2023-06-10T03:47:11;16.90;99.90
11704;DHT22;5908;51.354;7.458;2023-06-10T03:49:39;17.20;99.90
11704;DHT22;5908;51.354;7.458;2023-06-10T03:52:06;17.80;99.90
11704;DHT22;5908;51.354;7.458;2023-06-10T03:54:35;18.50;99.90
11704;DHT22;5908;51.354;7.458;2023-06-10T03:57:01;19.30;99.90
11704;DHT22;5908;51.354;7.458;2023-06-10T03:59:28;19.70;99.90
11704;DHT22;5908;51.354;7.458;2023-06-10T04:01:55;20.10;99.90
11704;DHT22;5908;51.354;7.458;2023-06-10T04:04:23;20.50;99.90
11704;DHT22;5908;51.354;7.458;2023-06-10T04:06:50;20.90;98.70
11704;DHT22;5908;51.354;7.458;2023-06-10T04:09:17;21.30;97.30
11704;DHT22;5908;51.354;7.458;2023-06-10T04:11:45;21.60;96.00
11704;DHT22;5908;51.354;7.458;2023-06-10T04:14:12;21.90;95.10
11704;DHT22;5908;51.354;7.458;2023-06-10T04:16:39;22.00;94.30
11704;DHT22;5908;51.354;7.458;2023-06-10T04:19:06;21.90;93.90
11704;DHT22;5908;51.354;7.458;2023-06-10T04:21:33;21.80;94.10
11704;DHT22;5908;51.354;7.458;2023-06-10T04:23:59;22.20;93.20
11704;DHT22;5908;51.354;7.458;2023-06-10T04:26:27;22.80;91.70
11704;DHT22;5908;51.354;7.458;2023-06-10T04:28:55;23.10;90.90
11704;DHT22;5908;51.354;7.458;2023-06-10T04:31:22;23.10;90.50
11704;DHT22;5908;51.354;7.458;2023-06-10T04:33:49;23.40;90.30
11704;DHT22;5908;51.354;7.458;2023-06-10T04:36:15;23.90;89.00
11704;DHT22;5908;51.354;7.458;2023-06-10T04:38:42;24.30;86.50
11704;DHT22;5908;51.354;7.458;2023-06-10T04:41:09;24.70;84.70
11704;DHT22;5908;51.354;7.458;2023-06-10T04:43:36;25.10;83.20
11704;DHT22;5908;51.354;7.458;2023-06-10T04:46:04;25.30;81.80
11704;DHT22;5908;51.354;7.458;2023-06-10T04:48:30;25.50;81.00
11704;DHT22;5908;51.354;7.458;2023-06-10T04:51:00;25.70;80.10
11704;DHT22;5908;51.354;7.458;2023-06-10T04:53:27;26.00;80.40
11704;DHT22;5908;51.354;7.458;2023-06-10T04:55:55;26.10;78.10
11704;DHT22;5908;51.354;7.458;2023-06-10T04:58:22;26.10;77.70
11704;DHT22;5908;51.354;7.458;2023-06-10T05:00:49;24.60;81.50
11704;DHT22;5908;51.354;7.458;2023-06-10T05:03:17;22.90;87.20
11704;DHT22;5908;51.354;7.458;2023-06-10T05:05:44;21.70;90.70
11704;DHT22;5908;51.354;7.458;2023-06-10T05:08:11;20.90;92.50
11704;DHT22;5908;51.354;7.458;2023-06-10T05:10:37;20.50;93.40
11704;DHT22;5908;51.354;7.458;2023-06-10T05:13:04;20.20;94.20
11704;DHT22;5908;51.354;7.458;2023-06-10T05:15:31;20.00;95.10
11704;DHT22;5908;51.354;7.458;2023-06-10T05:17:58;19.90;95.70
11704;DHT22;5908;51.354;7.458;2023-06-10T05:20:26;19.80;95.90
11704;DHT22;5908;51.354;7.458;2023-06-10T05:22:54;19.80;96.20
11704;DHT22;5908;51.354;7.458;2023-06-10T05:25:21;19.70;96.80
11704;DHT22;5908;51.354;7.458;2023-06-10T05:27:47;19.80;97.50
11704;DHT22;5908;51.354;7.458;2023-06-10T05:30:14;19.90;96.80
11704;DHT22;5908;51.354;7.458;2023-06-10T05:32:44;19.90;96.80
11704;DHT22;5908;51.354;7.458;2023-06-10T05:35:10;19.90;96.80
11704;DHT22;5908;51.354;7.458;2023-06-10T05:37:38;19.90;97.00
11704;DHT22;5908;51.354;7.458;2023-06-10T05:40:06;20.00;97.60
11704;DHT22;5908;51.354;7.458;2023-06-10T05:42:33;20.10;96.90
11704;DHT22;5908;51.354;7.458;2023-06-10T05:45:00;20.10;96.90
11704;DHT22;5908;51.354;7.458;2023-06-10T05:47:27;20.20;96.50
11704;DHT22;5908;51.354;7.458;2023-06-10T05:49:55;20.20;96.30
11704;DHT22;5908;51.354;7.458;2023-06-10T05:52:22;20.10;96.50
11704;DHT22;5908;51.354;7.458;2023-06-10T05:54:50;20.10;96.50
11704;DHT22;5908;51.354;7.458;2023-06-10T05:57:17;20.10;96.70
11704;DHT22;5908;51.354;7.458;2023-06-10T05:59:44;20.20;97.00
11704;DHT22;5908;51.354;7.458;2023-06-10T06:02:10;20.30;96.90
11704;DHT22;5908;51.354;7.458;2023-06-10T06:04:37;20.30;96.50
11704;DHT22;5908;51.354;7.458;2023-06-10T06:07:04;20.40;96.10
11704;DHT22;5908;51.354;7.458;2023-06-10T06:09:31;20.60;96.00
11704;DHT22;5908;51.354;7.458;2023-06-10T06:11:59;20.50;95.80
11704;DHT22;5908;51.354;7.458;2023-06-10T06:14:26;20.60;95.60
11704;DHT22;5908;51.354;7.458;2023-06-10T06:16:53;20.60;95.80
11704;DHT22;5908;51.354;7.458;2023-06-10T06:19:19;20.60;95.40
11704;DHT22;5908;51.354;7.458;2023-06-10T06:21:46;20.60;95.70
11704;DHT22;5908;51.354;7.458;2023-06-10T06:24:15;20.70;95.70
11704;DHT22;5908;51.354;7.458;2023-06-10T06:26:42;20.80;95.80
11704;DHT22;5908;51.354;7.458;2023-06-10T06:29:10;20.90;95.00
11704;DHT22;5908;51.354;7.458;2023-06-10T06:31:36;21.00;94.80
11704;DHT22;5908;51.354;7.458;2023-06-10T06:34:03;21.00;95.30
11704;DHT22;5908;51.354;7.458;2023-06-10T06:36:30;21.10;94.80
11704;DHT22;5908;51.354;7.458;2023-06-10T06:38:57;21.10;94.70
11704;DHT22;5908;51.354;7.458;2023-06-10T06:41:24;21.30;94.20
11704;DHT22;5908;51.354;7.458;2023-06-10T06:43:51;21.30;94.20
11704;DHT22;5908;51.354;7.458;2023-06-10T06:46:19;21.40;94.40
11704;DHT22;5908;51.354;7.458;2023-06-10T06:48:46;21.40;94.80
11704;DHT22;5908;51.354;7.458;2023-06-10T06:51:13;21.50;94.90
11704;DHT22;5908;51.354;7.458;2023-06-10T06:53:40;21.70;94.30
11704;DHT22;5908;51.354;7.458;2023-06-10T06:56:09;21.80;93.20
11704;DHT22;5908;51.354;7.458;2023-06-10T06:58:36;21.90;93.50
11704;DHT22;5908;51.354;7.458;2023-06-10T07:01:03;22.00;93.20
11704;DHT22;5908;51.354;7.458;2023-06-10T07:03:31;22.00;92.70
11704;DHT22;5908;51.354;7.458;2023-06-10T07:05:58;22.20;92.20
11704;DHT22;5908;51.354;7.458;2023-06-10T07:08:25;22.10;92.10
11704;DHT22;5908;51.354;7.458;2023-06-10T07:10:51;22.20;91.80
11704;DHT22;5908;51.354;7.458;2023-06-10T07:13:18;22.30;92.30
11704;DHT22;5908;51.354;7.458;2023-06-10T07:15:46;22.30;91.50
11704;DHT22;5908;51.354;7.458;2023-06-10T07:18:14;22.30;92.10
11704;DHT22;5908;51.354;7.458;2023-06-10T07:20:42;22.40;91.70
11704;DHT22;5908;51.354;7.458;2023-06-10T07:23:09;22.50;91.70
11704;DHT22;5908;51.354;7.458;2023-06-10T07:25:36;22.60;91.40
11704;DHT22;5908;51.354;7.458;2023-06-10T07:28:03;22.70;91.40
11704;DHT22;5908;51.354;7.458;2023-06-10T07:30:30;22.70;91.10
11704;DHT22;5908;51.354;7.458;2023-06-10T07:32:56;22.70;90.80
11704;DHT22;5908;51.354;7.458;2023-06-10T07:35:23;22.70;90.90
11704;DHT22;5908;51.354;7.458;2023-06-10T07:37:51;22.80;90.80
11704;DHT22;5908;51.354;7.458;2023-06-10T07:40:18;22.90;91.30
11704;DHT22;5908;51.354;7.458;2023-06-10T07:42:45;22.90;90.90
11704;DHT22;5908;51.354;7.458;2023-06-10T07:45:12;23.00;90.60
11704;DHT22;5908;51.354;7.458;2023-06-10T07:47:38;23.10;90.80
11704;DHT22;5908;51.354;7.458;2023-06-10T07:50:06;23.10;90.40
11704;DHT22;5908;51.354;7.458;2023-06-10T07:52:33;23.20;90.40
11704;DHT22;5908;51.354;7.458;2023-06-10T07:55:01;23.30;90.00
11704;DHT22;5908;51.354;7.458;2023-06-10T07:57:28;23.30;90.00
11704;DHT22;5908;51.354;7.458;2023-06-10T07:59:57;23.40;89.50
11704;DHT22;5908;51.354;7.458;2023-06-10T08:02:25;23.50;89.60
11704;DHT22;5908;51.354;7.458;2023-06-10T08:04:52;23.50;89.00
11704;DHT22;5908;51.354;7.458;2023-06-10T08:07:19;23.70;88.40
11704;DHT22;5908;51.354;7.458;2023-06-10T08:09:46;23.60;88.70
11704;DHT22;5908;51.354;7.458;2023-06-10T08:12:14;23.80;89.50
11704;DHT22;5908;51.354;7.458;2023-06-10T08:14:41;23.90;88.40
11704;DHT22;5908;51.354;7.458;2023-06-10T08:17:07;24.00;87.00
11704;DHT22;5908;51.354;7.458;2023-06-10T08:19:34;24.10;86.50
11704;DHT22;5908;51.354;7.458;2023-06-10T08:22:01;24.10;85.70
11704;DHT22;5908;51.354;7.458;2023-06-10T08:24:27;24.20;85.40
11704;DHT22;5908;51.354;7.458;2023-06-10T08:26:54;24.30;85.60
11704;DHT22;5908;51.354;7.458;2023-06-10T08:29:24;24.30;85.30
11704;DHT22;5908;51.354;7.458;2023-06-10T08:31:51;24.50;84.10
11704;DHT22;5908;51.354;7.458;2023-06-10T08:34:17;24.50;82.70
11704;DHT22;5908;51.354;7.458;2023-06-10T08:36:44;24.60;81.80
11704;DHT22;5908;51.354;7.458;2023-06-10T08:39:11;24.70;82.10
11704;DHT22;5908;51.354;7.458;2023-06-10T08:41:42;24.70;81.70
11704;DHT22;5908;51.354;7.458;2023-06-10T08:44:12;24.70;81.50
11704;DHT22;5908;51.354;7.458;2023-06-10T08:46:45;24.70;82.60
11704;DHT22;5908;51.354;7.458;2023-06-10T08:49:17;24.80;82.40
11704;DHT22;5908;51.354;7.458;2023-06-10T08:51:48;25.00;81.50
11704;DHT22;5908;51.354;7.458;2023-06-10T08:54:20;25.00;82.30
11704;DHT22;5908;51.354;7.458;2023-06-10T08:56:49;25.20;80.30
11704;DHT22;5908;51.354;7.458;2023-06-10T08:59:16;25.00;80.70
11704;DHT22;5908;51.354;7.458;2023-06-10T09:01:45;25.10;81.00
11704;DHT22;5908;51.354;7.458;2023-06-10T09:04:13;25.20;81.40
11704;DHT22;5908;51.354;7.458;2023-06-10T09:06:40;25.40;80.50
11704;DHT22;5908;51.354;7.458;2023-06-10T09:09:07;25.30;81.20
11704;DHT22;5908;51.354;7.458;2023-06-10T09:11:34;25.50;82.00
11704;DHT22;5908;51.354;7.458;2023-06-10T09:14:01;25.40;82.40
11704;DHT22;5908;51.354;7.458;2023-06-10T09:16:28;25.60;81.50
11704;DHT22;5908;51.354;7.458;2023-06-10T09:18:57;25.60;82.00
11704;DHT22;5908;51.354;7.458;2023-06-10T09:21:24;25.60;81.70
11704;DHT22;5908;51.354;7.458;2023-06-10T09:23:51;25.60;81.70
11704;DHT22;5908;51.354;7.458;2023-06-10T09:26:18;25.70;81.50
11704;DHT22;5908;51.354;7.458;2023-06-10T09:28:48;25.80;81.10
11704;DHT22;5908;51.354;7.458;2023-06-10T09:31:15;25.90;80.20
11704;DHT22;5908;51.354;7.458;2023-06-10T09:33:45;25.90;81.10
11704;DHT22;5908;51.354;7.458;2023-06-10T09:36:22;26.00;80.70
11704;DHT22;5908;51.354;7.458;2023-06-10T09:38:49;26.10;80.40
11704;DHT22;5908;51.354;7.458;2023-06-10T09:41:17;26.20;79.40
11704;DHT22;5908;51.354;7.458;2023-06-10T09:43:44;26.30;78.40
11704;DHT22;5908;51.354;7.458;2023-06-10T09:46:15;26.20;79.20
11704;DHT22;5908;51.354;7.458;2023-06-10T09:48:43;26.40;79.00
11704;DHT22;5908;51.354;7.458;2023-06-10T09:51:11;26.30;78.70
11704;DHT22;5908;51.354;7.458;2023-06-10T09:53:39;26.40;78.90
11704;DHT22;5908;51.354;7.458;2023-06-10T09:56:06;26.40;78.60
11704;DHT22;5908;51.354;7.458;2023-06-10T09:58:34;26.50;78.90
11704;DHT22;5908;51.354;7.458;2023-06-10T10:01:05;26.60;78.60
11704;DHT22;5908;51.354;7.458;2023-06-10T10:03:31;26.70;78.90
11704;DHT22;5908;51.354;7.458;2023-06-10T10:05:59;26.80;79.30
11704;DHT22;5908;51.354;7.458;2023-06-10T10:08:26;26.80;79.90
11704;DHT22;5908;51.354;7.458;2023-06-10T10:10:56;26.90;78.80
11704;DHT22;5908;51.354;7.458;2023-06-10T10:13:24;26.90;79.40
11704;DHT22;5908;51.354;7.458;2023-06-10T10:15:52;26.90;79.60
11704;DHT22;5908;51.354;7.458;2023-06-10T10:18:20;26.90;79.40
11704;DHT22;5908;51.354;7.458;2023-06-10T10:20:54;26.90;79.40
11704;DHT22;5908;51.354;7.458;2023-06-10T10:23:24;26.90;79.20
11704;DHT22;5908;51.354;7.458;2023-06-10T10:25:55;27.00;78.60
11704;DHT22;5908;51.354;7.458;2023-06-10T10:28:24;27.10;78.60
11704;DHT22;5908;51.354;7.458;2023-06-10T10:30:56;27.10;79.30
11704;DHT22;5908;51.354;7.458;2023-06-10T10:33:31;27.10;78.30
11704;DHT22;5908;51.354;7.458;2023-06-10T10:36:00;27.10;79.30
11704;DHT22;5908;51.354;7.458;2023-06-10T10:38:28;27.10;78.30
11704;DHT22;5908;51.354;7.458;2023-06-10T10:40:56;27.20;79.00
11704;DHT22;5908;51.354;7.458;2023-06-10T10:43:25;27.30;77.40
11704;DHT22;5908;51.354;7.458;2023-06-10T10:45:58;27.40;77.30
11704;DHT22;5908;51.354;7.458;2023-06-10T10:48:26;27.40;77.60
11704;DHT22;5908;51.354;7.458;2023-06-10T10:50:56;27.50;77.70
11704;DHT22;5908;51.354;7.458;2023-06-10T10:53:24;27.50;77.70
11704;DHT22;5908;51.354;7.458;2023-06-10T10:55:59;27.70;77.90
11704;DHT22;5908;51.354;7.458;2023-06-10T10:58:26;27.70;77.30
11704;DHT22;5908;51.354;7.458;2023-06-10T11:00:53;27.90;76.90
11704;DHT22;5908;51.354;7.458;2023-06-10T11:03:20;27.80;76.30
11704;DHT22;5908;51.354;7.458;2023-06-10T11:05:48;27.70;77.30
11704;DHT22;5908;51.354;7.458;2023-06-10T11:08:49;27.80;76.70
11704;DHT22;5908;51.354;7.458;2023-06-10T11:11:21;27.80;76.90
11704;DHT22;5908;51.354;7.458;2023-06-10T11:14:07;27.80;76.40
11704;DHT22;5908;51.354;7.458;2023-06-10T11:16:39;27.90;76.30
11704;DHT22;5908;51.354;7.458;2023-06-10T11:19:07;27.80;76.50
11704;DHT22;5908;51.354;7.458;2023-06-10T11:21:57;27.70;76.40
11704;DHT22;5908;51.354;7.458;2023-06-10T11:24:24;27.80;75.50
11704;DHT22;5908;51.354;7.458;2023-06-10T11:26:53;27.80;75.20
11704;DHT22;5908;51.354;7.458;2023-06-10T11:29:21;28.00;74.80
11704;DHT22;5908;51.354;7.458;2023-06-10T11:31:52;28.10;74.50
11704;DHT22;5908;51.354;7.458;2023-06-10T11:34:24;28.30;73.70
11704;DHT22;5908;51.354;7.458;2023-06-10T11:36:53;28.30;73.00
11704;DHT22;5908;51.354;7.458;2023-06-10T11:39:21;28.40;73.00
11704;DHT22;5908;51.354;7.458;2023-06-10T11:41:49;28.50;73.60
11704;DHT22;5908;51.354;7.458;2023-06-10T11:44:18;28.50;73.90
11704;DHT22;5908;51.354;7.458;2023-06-10T11:46:47;28.60;73.80
11704;DHT22;5908;51.354;7.458;2023-06-10T11:49:14;28.50;73.20
11704;DHT22;5908;51.354;7.458;2023-06-10T11:51:41;28.50;73.50
11704;DHT22;5908;51.354;7.458;2023-06-10T11:54:14;28.50;72.20
11704;DHT22;5908;51.354;7.458;2023-06-10T11:56:41;28.60;72.40
11704;DHT22;5908;51.354;7.458;2023-06-10T11:59:08;28.60;71.60
11704;DHT22;5908;51.354;7.458;2023-06-10T12:01:37;28.50;72.10
11704;DHT22;5908;51.354;7.458;2023-06-10T12:04:07;28.40;71.70
11704;DHT22;5908;51.354;7.458;2023-06-10T12:06:41;28.70;70.20
11704;DHT22;5908;51.354;7.458;2023-06-10T12:09:22;28.70;70.60
11704;DHT22;5908;51.354;7.458;2023-06-10T12:11:51;28.80;71.80
11704;DHT22;5908;51.354;7.458;2023-06-10T12:14:50;28.80;71.20
11704;DHT22;5908;51.354;7.458;2023-06-10T12:17:19;28.90;69.60
11704;DHT22;5908;51.354;7.458;2023-06-10T12:19:46;29.00;70.10
11704;DHT22;5908;51.354;7.458;2023-06-10T12:22:14;29.10;70.10
11704;DHT22;5908;51.354;7.458;2023-06-10T12:24:45;29.40;67.80
11704;DHT22;5908;51.354;7.458;2023-06-10T12:27:12;29.60;68.20
11704;DHT22;5908;51.354;7.458;2023-06-10T12:29:39;29.90;67.50
11704;DHT22;5908;51.354;7.458;2023-06-10T12:32:18;29.90;66.70
11704;DHT22;5908;51.354;7.458;2023-06-10T12:34:45;29.80;67.40
11704;DHT22;5908;51.354;7.458;2023-06-10T12:37:13;29.70;65.80
11704;DHT22;5908;51.354;7.458;2023-06-10T12:39:40;29.80;65.90
11704;DHT22;5908;51.354;7.458;2023-06-10T12:42:08;29.80;66.20
11704;DHT22;5908;51.354;7.458;2023-06-10T12:44:40;29.80;66.80
11704;DHT22;5908;51.354;7.458;2023-06-10T12:47:08;29.80;65.70
11704;DHT22;5908;51.354;7.458;2023-06-10T12:49:36;29.70;66.20
11704;DHT22;5908;51.354;7.458;2023-06-10T12:52:04;29.60;64.80
11704;DHT22;5908;51.354;7.458;2023-06-10T12:54:31;29.50;65.60
11704;DHT22;5908;51.354;7.458;2023-06-10T12:56:57;29.50;66.30
11704;DHT22;5908;51.354;7.458;2023-06-10T12:59:24;29.60;66.70
11704;DHT22;5908;51.354;7.458;2023-06-10T13:01:51;29.80;66.30
11704;DHT22;5908;51.354;7.458;2023-06-10T13:04:18;29.80;64.60
11704;DHT22;5908;51.354;7.458;2023-06-10T13:06:46;29.60;64.90
11704;DHT22;5908;51.354;7.458;2023-06-10T13:09:14;29.30;65.90
11704;DHT22;5908;51.354;7.458;2023-06-10T13:11:41;29.30;65.10
11704;DHT22;5908;51.354;7.458;2023-06-10T13:14:10;29.40;64.70
11704;DHT22;5908;51.354;7.458;2023-06-10T13:16:37;29.60;65.10
11704;DHT22;5908;51.354;7.458;2023-06-10T13:19:04;29.90;64.50
11704;DHT22;5908;51.354;7.458;2023-06-10T13:21:32;30.20;63.50
11704;DHT22;5908;51.354;7.458;2023-06-10T13:24:01;30.30;63.10
11704;DHT22;5908;51.354;7.458;2023-06-10T13:26:27;30.50;62.20
11704;DHT22;5908;51.354;7.458;2023-06-10T13:28:54;30.70;60.90
11704;DHT22;5908;51.354;7.458;2023-06-10T13:31:21;30.80;61.30
11704;DHT22;5908;51.354;7.458;2023-06-10T13:33:48;30.90;61.30
11704;DHT22;5908;51.354;7.458;2023-06-10T13:36:14;30.90;61.90
11704;DHT22;5908;51.354;7.458;2023-06-10T13:38:41;30.90;62.30
11704;DHT22;5908;51.354;7.458;2023-06-10T13:41:09;30.90;62.00
11704;DHT22;5908;51.354;7.458;2023-06-10T13:43:37;30.80;61.70
11704;DHT22;5908;51.354;7.458;2023-06-10T13:46:04;30.70;60.60
11704;DHT22;5908;51.354;7.458;2023-06-10T13:48:31;30.50;61.10
11704;DHT22;5908;51.354;7.458;2023-06-10T13:50:58;30.40;61.90
11704;DHT22;5908;51.354;7.458;2023-06-10T13:53:25;30.40;62.20
11704;DHT22;5908;51.354;7.458;2023-06-10T13:55:52;30.30;61.50
11704;DHT22;5908;51.354;7.458;2023-06-10T13:58:20;30.20;61.90
11704;DHT22;5908;51.354;7.458;2023-06-10T14:00:47;30.20;62.50
11704;DHT22;5908;51.354;7.458;2023-06-10T14:03:14;30.20;61.90
11704;DHT22;5908;51.354;7.458;2023-06-10T14:05:41;30.20;61.50
11704;DHT22;5908;51.354;7.458;2023-06-10T14:08:08;30.20;61.10
11704;DHT22;5908;51.354;7.458;2023-06-10T14:10:35;30.20;60.40
11704;DHT22;5908;51.354;7.458;2023-06-10T14:13:01;30.20;60.70
11704;DHT22;5908;51.354;7.458;2023-06-10T14:15:30;30.20;60.20
11704;DHT22;5908;51.354;7.458;2023-06-10T14:17:57;30.30;59.80
11704;DHT22;5908;51.354;7.458;2023-06-10T14:20:24;30.20;59.80
11704;DHT22;5908;51.354;7.458;2023-06-10T14:22:52;30.20;60.80
11704;DHT22;5908;51.354;7.458;2023-06-10T14:25:19;30.30;59.10
11704;DHT22;5908;51.354;7.458;2023-06-10T14:27:45;30.30;59.10
11704;DHT22;5908;51.354;7.458;2023-06-10T14:30:13;30.40;58.30
11704;DHT22;5908;51.354;7.458;2023-06-10T14:32:41;30.50;57.80
11704;DHT22;5908;51.354;7.458;2023-06-10T14:35:08;30.40;58.50
11704;DHT22;5908;51.354;7.458;2023-06-10T14:37:35;30.50;58.50
11704;DHT22;5908;51.354;7.458;2023-06-10T14:40:02;30.30;58.80
11704;DHT22;5908;51.354;7.458;2023-06-10T14:42:30;30.30;59.40
11704;DHT22;5908;51.354;7.458;2023-06-10T14:44:57;30.20;59.80
11704;DHT22;5908;51.354;7.458;2023-06-10T14:47:24;30.30;59.10
11704;DHT22;5908;51.354;7.458;2023-06-10T14:49:53;30.30;58.80
11704;DHT22;5908;51.354;7.458;2023-06-10T14:52:19;30.50;58.50
11704;DHT22;5908;51.354;7.458;2023-06-10T14:54:46;30.80;57.70
11704;DHT22;5908;51.354;7.458;2023-06-10T14:57:13;31.00;55.90
11704;DHT22;5908;51.354;7.458;2023-06-10T14:59:40;31.30;55.60
11704;DHT22;5908;51.354;7.458;2023-06-10T15:02:06;31.40;56.30
11704;DHT22;5908;51.354;7.458;2023-06-10T15:04:33;31.30;57.00
11704;DHT22;5908;51.354;7.458;2023-06-10T15:07:01;31.20;57.30
11704;DHT22;5908;51.354;7.458;2023-06-10T15:09:28;31.30;57.60
11704;DHT22;5908;51.354;7.458;2023-06-10T15:11:55;31.30;57.60
11704;DHT22;5908;51.354;7.458;2023-06-10T15:14:22;31.40;57.50
11704;DHT22;5908;51.354;7.458;2023-06-10T15:16:48;31.50;56.90
11704;DHT22;5908;51.354;7.458;2023-06-10T15:19:15;31.70;56.90
11704;DHT22;5908;51.354;7.458;2023-06-10T15:21:42;31.70;55.70
11704;DHT22;5908;51.354;7.458;2023-06-10T15:24:10;31.80;55.60
11704;DHT22;5908;51.354;7.458;2023-06-10T15:26:37;31.80;55.20
11704;DHT22;5908;51.354;7.458;2023-06-10T15:29:04;31.90;55.50
11704;DHT22;5908;51.354;7.458;2023-06-10T15:31:31;32.00;56.00
11704;DHT22;5908;51.354;7.458;2023-06-10T15:33:58;32.20;56.70
11704;DHT22;5908;51.354;7.458;2023-06-10T15:36:26;32.50;56.30
11704;DHT22;5908;51.354;7.458;2023-06-10T15:38:53;32.50;55.40
11704;DHT22;5908;51.354;7.458;2023-06-10T15:41:21;32.40;55.50
11704;DHT22;5908;51.354;7.458;2023-06-10T15:43:48;32.40;55.50
11704;DHT22;5908;51.354;7.458;2023-06-10T15:46:15;32.60;55.00
11704;DHT22;5908;51.354;7.458;2023-06-10T15:48:41;32.70;54.90